sensor_id;sensor_type;location;lat;lon;timestamp;pressure;altitude;pressure_sealevel;temperature;humidity
41218;BME280;26950;50.960;7.138;2023-03-31T00:01:48;99619.59;;;15.09;59.33
41218;BME280;26950;50.960;7.138;2023-03-31T00:04:17;99614.41;;;14.94;59.54
41218;BME280;26950;50.960;7.138;2023-03-31T00:06:43;99612.69;;;14.85;60.10
41218;BME280;26950;50.960;7.138;2023-03-31T00:09:12;99609.13;;;14.94;60.06
41218;BME280;26950;50.960;7.138;2023-03-31T00:11:40;99609.06;;;15.03;60.00
41218;BME280;26950;50.960;7.138;2023-03-31T00:14:08;99610.59;;;15.34;58.94
41218;BME280;26950;50.960;7.138;2023-03-31T00:16:35;99609.69;;;15.40;58.85
41218;BME280;26950;50.960;7.138;2023-03-31T00:19:03;99610.53;;;15.47;58.77
41218;BME280;26950;50.960;7.138;2023-03-31T00:21:30;99601.84;;;15.28;59.87
41218;BME280;26950;50.960;7.138;2023-03-31T00:24:00;99598.34;;;15.27;60.59
41218;BME280;26950;50.960;7.138;2023-03-31T00:26:27;99585.91;;;15.37;60.55
41218;BME280;26950;50.960;7.138;2023-03-31T00:28:55;99586.09;;;15.16;61.41
41218;BME280;26950;50.960;7.138;2023-03-31T00:31:23;99589.75;;;14.93;62.36
41218;BME280;26950;50.960;7.138;2023-03-31T00:33:51;99580.25;;;14.62;63.63
41218;BME280;26950;50.960;7.138;2023-03-31T00:36:17;99572.09;;;14.98;62.56
41218;BME280;26950;50.960;7.138;2023-03-31T00:38:51;99569.44;;;15.04;62.68
41218;BME280;26950;50.960;7.138;2023-03-31T00:41:18;99565.88;;;15.05;62.30
41218;BME280;26950;50.960;7.138;2023-03-31T00:44:01;99562.16;;;15.32;61.55
41218;BME280;26950;50.960;7.138;2023-03-31T00:46:33;99551.69;;;15.22;61.92
41218;BME280;26950;50.960;7.138;2023-03-31T00:49:00;99542.84;;;15.27;61.52
41218;BME280;26950;50.960;7.138;2023-03-31T00:51:30;99530.59;;;15.14;62.15
41218;BME280;26950;50.960;7.138;2023-03-31T00:54:00;99524.59;;;14.92;62.81
41218;BME280;26950;50.960;7.138;2023-03-31T00:56:33;99527.19;;;14.95;63.07
41218;BME280;26950;50.960;7.138;2023-03-31T00:59:03;99512.44;;;14.68;63.79
41218;BME280;26950;50.960;7.138;2023-03-31T01:01:33;99518.63;;;14.66;64.55
41218;BME280;26950;50.960;7.138;2023-03-31T01:04:01;99506.19;;;14.84;63.38
41218;BME280;26950;50.960;7.138;2023-03-31T01:06:29;99505.50;;;14.53;64.64
41218;BME280;26950;50.960;7.138;2023-03-31T01:08:56;99502.63;;;14.90;63.46
41218;BME280;26950;50.960;7.138;2023-03-31T01:11:23;99498.16;;;14.97;63.30
41218;BME280;26950;50.960;7.138;2023-03-31T01:13:53;99486.00;;;14.74;63.93
41218;BME280;26950;50.960;7.138;2023-03-31T01:16:21;99482.47;;;14.75;64.01
41218;BME280;26950;50.960;7.138;2023-03-31T01:18:49;99470.19;;;14.71;64.14
41218;BME280;26950;50.960;7.138;2023-03-31T01:21:42;99459.63;;;14.71;64.07
41218;BME280;26950;50.960;7.138;2023-03-31T01:24:44;99460.63;;;14.53;64.85
41218;BME280;26950;50.960;7.138;2023-03-31T01:27:34;99457.13;;;14.44;65.04
41218;BME280;26950;50.960;7.138;2023-03-31T01:30:24;99459.75;;;14.50;65.17
41218;BME280;26950;50.960;7.138;2023-03-31T01:33:20;99449.22;;;14.48;65.15
41218;BME280;26950;50.960;7.138;2023-03-31T01:36:11;99447.34;;;14.63;64.53
41218;BME280;26950;50.960;7.138;2023-03-31T01:42:02;99444.84;;;14.41;65.61
41218;BME280;26950;50.960;7.138;2023-03-31T01:44:39;99441.28;;;14.48;65.47
41218;BME280;26950;50.960;7.138;2023-03-31T01:47:13;99435.97;;;14.51;65.34
41218;BME280;26950;50.960;7.138;2023-03-31T01:49:46;99427.25;;;14.46;65.33
41218;BME280;26950;50.960;7.138;2023-03-31T01:52:21;99428.09;;;14.39;65.77
41218;BME280;26950;50.960;7.138;2023-03-31T01:54:50;99409.09;;;13.84;67.68
41218;BME280;26950;50.960;7.138;2023-03-31T01:57:23;99423.06;;;13.99;67.63
41218;BME280;26950;50.960;7.138;2023-03-31T01:59:59;99414.44;;;13.71;68.50
41218;BME280;26950;50.960;7.138;2023-03-31T02:02:29;99404.72;;;13.78;68.55
41218;BME280;26950;50.960;7.138;2023-03-31T02:04:58;99413.44;;;13.92;68.39
41218;BME280;26950;50.960;7.138;2023-03-31T02:07:28;99408.78;;;14.40;66.99
41218;BME280;26950;50.960;7.138;2023-03-31T02:09:59;99399.06;;;14.39;67.39
41218;BME280;26950;50.960;7.138;2023-03-31T02:12:30;99398.16;;;14.49;67.57
41218;BME280;26950;50.960;7.138;2023-03-31T02:14:59;99399.84;;;14.58;67.40
41218;BME280;26950;50.960;7.138;2023-03-31T02:17:27;99392.94;;;14.46;67.99
41218;BME280;26950;50.960;7.138;2023-03-31T02:19:56;99385.75;;;14.65;67.82
41218;BME280;26950;50.960;7.138;2023-03-31T02:22:25;99385.09;;;14.28;69.07
41218;BME280;26950;50.960;7.138;2023-03-31T02:24:56;99376.22;;;14.38;69.03
41218;BME280;26950;50.960;7.138;2023-03-31T02:27:27;99364.00;;;14.28;69.74
41218;BME280;26950;50.960;7.138;2023-03-31T02:29:58;99360.28;;;14.56;68.98
41218;BME280;26950;50.960;7.138;2023-03-31T02:32:30;99350.63;;;14.54;69.12
41218;BME280;26950;50.960;7.138;2023-03-31T02:34:57;99342.66;;;14.57;69.25
41218;BME280;26950;50.960;7.138;2023-03-31T02:37:25;99338.69;;;13.95;71.51
41218;BME280;26950;50.960;7.138;2023-03-31T02:39:54;99318.31;;;14.20;70.76
41218;BME280;26950;50.960;7.138;2023-03-31T02:42:22;99302.34;;;14.40;70.15
41218;BME280;26950;50.960;7.138;2023-03-31T02:44:48;99299.69;;;14.40;70.39
41218;BME280;26950;50.960;7.138;2023-03-31T02:47:18;99284.75;;;14.37;70.21
41218;BME280;26950;50.960;7.138;2023-03-31T02:49:47;99275.88;;;14.44;70.22
41218;BME280;26950;50.960;7.138;2023-03-31T02:52:35;99272.28;;;14.59;69.90
41218;BME280;26950;50.960;7.138;2023-03-31T02:55:23;99276.81;;;14.42;70.32
41218;BME280;26950;50.960;7.138;2023-03-31T02:58:28;99272.94;;;13.73;73.75
41218;BME280;26950;50.960;7.138;2023-03-31T03:01:07;99252.44;;;14.11;72.50
41218;BME280;26950;50.960;7.138;2023-03-31T03:03:42;99221.06;;;13.77;74.00
41218;BME280;26950;50.960;7.138;2023-03-31T03:06:19;99212.91;;;14.06;72.81
41218;BME280;26950;50.960;7.138;2023-03-31T03:09:04;99212.81;;;14.18;72.16
41218;BME280;26950;50.960;7.138;2023-03-31T03:11:38;99197.72;;;14.31;71.63
41218;BME280;26950;50.960;7.138;2023-03-31T03:14:16;99194.31;;;14.20;71.70
41218;BME280;26950;50.960;7.138;2023-03-31T03:16:46;99206.97;;;13.84;73.40
41218;BME280;26950;50.960;7.138;2023-03-31T03:19:20;99197.25;;;13.86;73.44
41218;BME280;26950;50.960;7.138;2023-03-31T03:21:47;99191.78;;;14.09;72.51
41218;BME280;26950;50.960;7.138;2023-03-31T03:24:14;99188.50;;;13.84;73.19
41218;BME280;26950;50.960;7.138;2023-03-31T03:26:41;99184.75;;;14.07;72.54
41218;BME280;26950;50.960;7.138;2023-03-31T03:29:09;99174.25;;;14.03;72.52
41218;BME280;26950;50.960;7.138;2023-03-31T03:31:36;99194.94;;;13.46;74.10
41218;BME280;26950;50.960;7.138;2023-03-31T03:34:02;99196.47;;;13.78;73.69
41218;BME280;26950;50.960;7.138;2023-03-31T03:36:30;99189.31;;;13.88;73.52
41218;BME280;26950;50.960;7.138;2023-03-31T03:38:57;99176.34;;;13.62;74.11
41218;BME280;26950;50.960;7.138;2023-03-31T03:41:23;99165.66;;;13.83;73.84
41218;BME280;26950;50.960;7.138;2023-03-31T03:43:50;99162.91;;;13.97;72.39
41218;BME280;26950;50.960;7.138;2023-03-31T03:46:16;99140.09;;;13.91;73.09
41218;BME280;26950;50.960;7.138;2023-03-31T03:48:43;99136.56;;;13.92;72.59
41218;BME280;26950;50.960;7.138;2023-03-31T03:51:10;99133.44;;;13.47;74.28
41218;BME280;26950;50.960;7.138;2023-03-31T03:53:38;99140.16;;;13.85;72.99
41218;BME280;26950;50.960;7.138;2023-03-31T03:56:05;99133.97;;;13.86;72.99
41218;BME280;26950;50.960;7.138;2023-03-31T03:58:31;99126.09;;;13.85;72.88
41218;BME280;26950;50.960;7.138;2023-03-31T04:00:58;99125.34;;;13.70;72.82
41218;BME280;26950;50.960;7.138;2023-03-31T04:03:24;99121.06;;;13.56;73.72
41218;BME280;26950;50.960;7.138;2023-03-31T04:05:51;99113.84;;;13.79;72.54
41218;BME280;26950;50.960;7.138;2023-03-31T04:08:18;99126.22;;;13.71;73.17
41218;BME280;26950;50.960;7.138;2023-03-31T04:10:46;99110.16;;;13.97;72.07
41218;BME280;26950;50.960;7.138;2023-03-31T04:13:13;99112.16;;;13.70;72.40
41218;BME280;26950;50.960;7.138;2023-03-31T04:15:39;99114.09;;;13.48;73.55
41218;BME280;26950;50.960;7.138;2023-03-31T04:18:06;99112.34;;;13.47;73.01
41218;BME280;26950;50.960;7.138;2023-03-31T04:20:34;99107.97;;;13.43;72.99
41218;BME280;26950;50.960;7.138;2023-03-31T04:23:02;99104.63;;;13.17;74.22
41218;BME280;26950;50.960;7.138;2023-03-31T04:25:30;99109.03;;;13.13;75.04
41218;BME280;26950;50.960;7.138;2023-03-31T04:27:58;99099.03;;;13.66;73.27
41218;BME280;26950;50.960;7.138;2023-03-31T04:30:25;99090.41;;;13.45;73.58
41218;BME280;26950;50.960;7.138;2023-03-31T04:32:55;99078.94;;;13.53;73.22
41218;BME280;26950;50.960;7.138;2023-03-31T04:35:24;99072.97;;;13.29;73.87
41218;BME280;26950;50.960;7.138;2023-03-31T04:37:52;99071.13;;;13.40;73.89
41218;BME280;26950;50.960;7.138;2023-03-31T04:40:23;99052.63;;;13.46;73.76
41218;BME280;26950;50.960;7.138;2023-03-31T04:42:50;99027.88;;;13.63;73.04
41218;BME280;26950;50.960;7.138;2023-03-31T04:45:18;99011.03;;;13.76;72.67
41218;BME280;26950;50.960;7.138;2023-03-31T04:47:44;99010.41;;;13.51;73.36
41218;BME280;26950;50.960;7.138;2023-03-31T04:50:10;99003.31;;;13.61;72.36
41218;BME280;26950;50.960;7.138;2023-03-31T04:52:37;98995.56;;;13.45;73.11
41218;BME280;26950;50.960;7.138;2023-03-31T04:55:05;98997.38;;;13.39;72.37
41218;BME280;26950;50.960;7.138;2023-03-31T04:57:31;98994.75;;;13.37;73.41
41218;BME280;26950;50.960;7.138;2023-03-31T04:59:58;99001.44;;;12.66;74.97
41218;BME280;26950;50.960;7.138;2023-03-31T05:02:25;98973.81;;;13.23;73.79
41218;BME280;26950;50.960;7.138;2023-03-31T05:04:52;98976.56;;;13.05;74.29
41218;BME280;26950;50.960;7.138;2023-03-31T05:07:18;98978.16;;;13.29;73.40
41218;BME280;26950;50.960;7.138;2023-03-31T05:09:45;98966.53;;;13.52;72.12
41218;BME280;26950;50.960;7.138;2023-03-31T05:12:12;98966.69;;;13.35;72.12
41218;BME280;26950;50.960;7.138;2023-03-31T05:14:38;98962.41;;;13.20;73.00
41218;BME280;26950;50.960;7.138;2023-03-31T05:17:05;98950.94;;;13.26;73.06
41218;BME280;26950;50.960;7.138;2023-03-31T05:19:33;98948.53;;;12.98;74.01
41218;BME280;26950;50.960;7.138;2023-03-31T05:21:59;98939.84;;;12.87;73.86
41218;BME280;26950;50.960;7.138;2023-03-31T05:24:26;98942.44;;;12.96;73.35
41218;BME280;26950;50.960;7.138;2023-03-31T05:26:54;98934.34;;;13.16;72.34
41218;BME280;26950;50.960;7.138;2023-03-31T05:29:22;98923.81;;;13.16;72.34
41218;BME280;26950;50.960;7.138;2023-03-31T05:31:49;98920.88;;;13.45;71.06
41218;BME280;26950;50.960;7.138;2023-03-31T05:34:15;98925.41;;;13.35;71.73
41218;BME280;26950;50.960;7.138;2023-03-31T05:36:43;98929.06;;;13.16;72.39
41218;BME280;26950;50.960;7.138;2023-03-31T05:39:12;98924.66;;;13.22;71.18
41218;BME280;26950;50.960;7.138;2023-03-31T05:41:39;98912.25;;;13.32;71.58
41218;BME280;26950;50.960;7.138;2023-03-31T05:44:06;98917.66;;;13.21;71.33
41218;BME280;26950;50.960;7.138;2023-03-31T05:46:32;98899.22;;;13.21;71.25
41218;BME280;26950;50.960;7.138;2023-03-31T05:48:59;98899.31;;;13.09;71.56
41218;BME280;26950;50.960;7.138;2023-03-31T05:51:27;98898.50;;;13.03;72.49
41218;BME280;26950;50.960;7.138;2023-03-31T05:53:54;98886.88;;;13.25;71.49
41218;BME280;26950;50.960;7.138;2023-03-31T05:56:21;98879.06;;;13.13;72.30
41218;BME280;26950;50.960;7.138;2023-03-31T05:58:48;98879.00;;;13.19;71.73
41218;BME280;26950;50.960;7.138;2023-03-31T06:01:16;98878.75;;;13.43;71.29
41218;BME280;26950;50.960;7.138;2023-03-31T06:03:44;98878.44;;;13.69;70.32
41218;BME280;26950;50.960;7.138;2023-03-31T06:06:11;98885.56;;;13.64;70.20
41218;BME280;26950;50.960;7.138;2023-03-31T06:08:39;98891.69;;;13.65;69.54
41218;BME280;26950;50.960;7.138;2023-03-31T06:11:09;98891.66;;;13.66;70.06
41218;BME280;26950;50.960;7.138;2023-03-31T06:13:37;98891.81;;;13.54;70.15
41218;BME280;26950;50.960;7.138;2023-03-31T06:16:05;98881.56;;;13.30;71.82
41218;BME280;26950;50.960;7.138;2023-03-31T06:18:33;98879.78;;;13.30;70.82
41218;BME280;26950;50.960;7.138;2023-03-31T06:21:00;98878.72;;;13.45;70.99
41218;BME280;26950;50.960;7.138;2023-03-31T06:23:27;98871.72;;;13.44;71.05
41218;BME280;26950;50.960;7.138;2023-03-31T06:25:54;98871.09;;;13.19;72.50
41218;BME280;26950;50.960;7.138;2023-03-31T06:28:25;98858.97;;;13.04;72.31
41218;BME280;26950;50.960;7.138;2023-03-31T06:30:58;98851.34;;;13.60;70.85
41218;BME280;26950;50.960;7.138;2023-03-31T06:33:25;98847.34;;;13.94;69.92
41218;BME280;26950;50.960;7.138;2023-03-31T06:35:54;98855.88;;;13.48;70.32
41218;BME280;26950;50.960;7.138;2023-03-31T06:38:20;98856.75;;;13.47;69.61
41218;BME280;26950;50.960;7.138;2023-03-31T06:40:47;98841.94;;;13.39;69.10
41218;BME280;26950;50.960;7.138;2023-03-31T06:43:13;98838.09;;;13.66;68.68
41218;BME280;26950;50.960;7.138;2023-03-31T06:45:41;98837.56;;;14.04;67.77
41218;BME280;26950;50.960;7.138;2023-03-31T06:48:08;98828.91;;;13.96;66.96
41218;BME280;26950;50.960;7.138;2023-03-31T06:50:36;98835.19;;;13.86;67.35
41218;BME280;26950;50.960;7.138;2023-03-31T06:53:03;98830.50;;;14.04;66.63
41218;BME280;26950;50.960;7.138;2023-03-31T06:55:29;98827.22;;;13.89;66.33
41218;BME280;26950;50.960;7.138;2023-03-31T06:57:58;98828.19;;;13.83;66.92
41218;BME280;26950;50.960;7.138;2023-03-31T07:00:24;98826.22;;;13.97;66.49
41218;BME280;26950;50.960;7.138;2023-03-31T07:02:52;98833.78;;;14.22;65.83
41218;BME280;26950;50.960;7.138;2023-03-31T07:05:19;98835.63;;;14.15;65.95
41218;BME280;26950;50.960;7.138;2023-03-31T07:07:51;98820.72;;;14.13;66.98
41218;BME280;26950;50.960;7.138;2023-03-31T07:10:17;98813.38;;;14.33;65.20
41218;BME280;26950;50.960;7.138;2023-03-31T07:12:44;98812.78;;;14.13;66.33
41218;BME280;26950;50.960;7.138;2023-03-31T07:15:10;98822.03;;;13.84;66.53
41218;BME280;26950;50.960;7.138;2023-03-31T07:17:37;98825.19;;;14.08;65.68
41218;BME280;26950;50.960;7.138;2023-03-31T07:20:08;98819.72;;;14.20;66.12
41218;BME280;26950;50.960;7.138;2023-03-31T07:22:37;98822.22;;;14.29;63.95
41218;BME280;26950;50.960;7.138;2023-03-31T07:25:06;98815.16;;;14.31;64.49
41218;BME280;26950;50.960;7.138;2023-03-31T07:27:33;98817.06;;;14.20;65.10
41218;BME280;26950;50.960;7.138;2023-03-31T07:29:59;98810.66;;;14.38;63.28
41218;BME280;26950;50.960;7.138;2023-03-31T07:32:26;98807.13;;;13.80;65.23
41218;BME280;26950;50.960;7.138;2023-03-31T07:34:52;98811.47;;;13.83;64.94
41218;BME280;26950;50.960;7.138;2023-03-31T07:37:20;98806.88;;;14.55;63.24
41218;BME280;26950;50.960;7.138;2023-03-31T07:39:46;98808.38;;;14.16;63.40
41218;BME280;26950;50.960;7.138;2023-03-31T07:42:13;98805.66;;;14.19;63.93
41218;BME280;26950;50.960;7.138;2023-03-31T07:44:39;98800.47;;;14.15;63.35
41218;BME280;26950;50.960;7.138;2023-03-31T07:47:06;98803.56;;;14.41;63.47
41218;BME280;26950;50.960;7.138;2023-03-31T07:49:34;98797.06;;;14.07;64.05
41218;BME280;26950;50.960;7.138;2023-03-31T07:52:01;98804.50;;;14.37;64.40
41218;BME280;26950;50.960;7.138;2023-03-31T07:54:29;98805.97;;;15.04;62.80
41218;BME280;26950;50.960;7.138;2023-03-31T07:56:55;98802.41;;;15.50;61.42
41218;BME280;26950;50.960;7.138;2023-03-31T07:59:25;98796.47;;;15.39;59.64
41218;BME280;26950;50.960;7.138;2023-03-31T08:01:52;98803.00;;;15.21;60.36
41218;BME280;26950;50.960;7.138;2023-03-31T08:04:18;98800.09;;;15.77;59.70
41218;BME280;26950;50.960;7.138;2023-03-31T08:06:45;98791.25;;;15.36;59.15
41218;BME280;26950;50.960;7.138;2023-03-31T08:09:12;98776.28;;;15.77;59.52
41218;BME280;26950;50.960;7.138;2023-03-31T08:11:40;98779.59;;;15.46;59.65
41218;BME280;26950;50.960;7.138;2023-03-31T08:14:06;98789.81;;;15.20;59.89
41218;BME280;26950;50.960;7.138;2023-03-31T08:16:33;98769.69;;;15.13;60.72
41218;BME280;26950;50.960;7.138;2023-03-31T08:18:59;98774.56;;;15.34;59.31
41218;BME280;26950;50.960;7.138;2023-03-31T08:21:26;98764.34;;;15.17;60.79
41218;BME280;26950;50.960;7.138;2023-03-31T08:23:53;98763.75;;;15.46;59.80
41218;BME280;26950;50.960;7.138;2023-03-31T08:26:20;98760.69;;;15.66;59.46
41218;BME280;26950;50.960;7.138;2023-03-31T08:28:50;98749.69;;;15.84;58.74
41218;BME280;26950;50.960;7.138;2023-03-31T08:31:18;98757.97;;;15.69;59.02
41218;BME280;26950;50.960;7.138;2023-03-31T08:33:45;98747.91;;;15.83;58.50
41218;BME280;26950;50.960;7.138;2023-03-31T08:36:12;98751.28;;;15.91;57.02
41218;BME280;26950;50.960;7.138;2023-03-31T08:38:41;98743.16;;;15.99;58.22
41218;BME280;26950;50.960;7.138;2023-03-31T08:41:21;98741.50;;;16.31;57.01
41218;BME280;26950;50.960;7.138;2023-03-31T08:43:53;98737.88;;;16.33;57.32
41218;BME280;26950;50.960;7.138;2023-03-31T08:46:21;98741.81;;;16.87;55.89
41218;BME280;26950;50.960;7.138;2023-03-31T08:48:50;98741.50;;;16.63;55.45
41218;BME280;26950;50.960;7.138;2023-03-31T08:51:22;98736.63;;;16.48;55.46
41218;BME280;26950;50.960;7.138;2023-03-31T08:53:51;98733.69;;;16.93;55.28
41218;BME280;26950;50.960;7.138;2023-03-31T08:56:24;98731.25;;;17.16;55.17
41218;BME280;26950;50.960;7.138;2023-03-31T08:58:53;98730.25;;;16.89;55.78
41218;BME280;26950;50.960;7.138;2023-03-31T09:01:35;98724.50;;;16.74;54.88
41218;BME280;26950;50.960;7.138;2023-03-31T09:04:19;98720.84;;;17.10;54.92
41218;BME280;26950;50.960;7.138;2023-03-31T09:06:57;98723.03;;;17.55;52.65
41218;BME280;26950;50.960;7.138;2023-03-31T09:09:33;98727.34;;;17.87;51.19
41218;BME280;26950;50.960;7.138;2023-03-31T09:12:08;98718.81;;;18.05;50.02
41218;BME280;26950;50.960;7.138;2023-03-31T09:14:40;98706.22;;;18.89;50.05
41218;BME280;26950;50.960;7.138;2023-03-31T09:17:16;98715.28;;;18.31;49.65
41218;BME280;26950;50.960;7.138;2023-03-31T09:19:49;98707.13;;;17.83;50.24
41218;BME280;26950;50.960;7.138;2023-03-31T09:22:21;98705.88;;;17.95;49.84
41218;BME280;26950;50.960;7.138;2023-03-31T09:24:51;98696.00;;;18.51;48.34
41218;BME280;26950;50.960;7.138;2023-03-31T09:27:20;98708.38;;;18.26;49.06
41218;BME280;26950;50.960;7.138;2023-03-31T09:29:51;98698.13;;;18.67;48.44
41218;BME280;26950;50.960;7.138;2023-03-31T09:32:21;98704.09;;;18.48;48.34
41218;BME280;26950;50.960;7.138;2023-03-31T09:34:51;98681.47;;;18.62;46.87
41218;BME280;26950;50.960;7.138;2023-03-31T09:37:18;98692.91;;;18.12;48.82
41218;BME280;26950;50.960;7.138;2023-03-31T09:39:45;98677.75;;;18.92;46.66
41218;BME280;26950;50.960;7.138;2023-03-31T09:42:12;98674.31;;;18.89;47.69
41218;BME280;26950;50.960;7.138;2023-03-31T09:44:40;98674.09;;;18.95;48.12
41218;BME280;26950;50.960;7.138;2023-03-31T09:47:13;98673.00;;;18.50;47.96
41218;BME280;26950;50.960;7.138;2023-03-31T09:49:44;98674.44;;;18.36;47.91
41218;BME280;26950;50.960;7.138;2023-03-31T09:52:15;98692.81;;;17.59;52.10
41218;BME280;26950;50.960;7.138;2023-03-31T09:54:48;98687.28;;;16.78;56.63
41218;BME280;26950;50.960;7.138;2023-03-31T09:57:23;98691.94;;;16.02;60.78
41218;BME280;26950;50.960;7.138;2023-03-31T09:59:51;98674.88;;;16.13;60.83
41218;BME280;26950;50.960;7.138;2023-03-31T10:02:37;98695.31;;;14.44;64.15
41218;BME280;26950;50.960;7.138;2023-03-31T10:05:06;98673.34;;;14.90;65.43
41218;BME280;26950;50.960;7.138;2023-03-31T10:07:33;98675.03;;;15.33;63.56
41218;BME280;26950;50.960;7.138;2023-03-31T10:10:00;98679.53;;;15.68;62.24
41218;BME280;26950;50.960;7.138;2023-03-31T10:12:28;98673.19;;;16.11;61.21
41218;BME280;26950;50.960;7.138;2023-03-31T10:15:10;98666.53;;;16.94;59.94
41218;BME280;26950;50.960;7.138;2023-03-31T10:17:40;98652.47;;;18.55;54.60
41218;BME280;26950;50.960;7.138;2023-03-31T10:20:19;98646.81;;;19.13;52.72
41218;BME280;26950;50.960;7.138;2023-03-31T10:22:46;98660.50;;;18.02;54.09
41218;BME280;26950;50.960;7.138;2023-03-31T10:25:15;98652.75;;;17.68;54.53
41218;BME280;26950;50.960;7.138;2023-03-31T10:27:44;98641.72;;;16.65;56.73
41218;BME280;26950;50.960;7.138;2023-03-31T10:30:17;98646.59;;;16.50;58.10
41218;BME280;26950;50.960;7.138;2023-03-31T10:32:47;98639.34;;;16.56;57.20
41218;BME280;26950;50.960;7.138;2023-03-31T10:35:21;98639.91;;;16.67;57.38
41218;BME280;26950;50.960;7.138;2023-03-31T10:37:50;98639.94;;;17.83;54.34
41218;BME280;26950;50.960;7.138;2023-03-31T10:40:21;98631.16;;;18.82;50.08
41218;BME280;26950;50.960;7.138;2023-03-31T10:42:58;98619.88;;;19.67;48.35
41218;BME280;26950;50.960;7.138;2023-03-31T10:45:27;98622.47;;;20.11;45.79
41218;BME280;26950;50.960;7.138;2023-03-31T10:47:56;98619.09;;;20.88;44.43
41218;BME280;26950;50.960;7.138;2023-03-31T10:50:27;98609.47;;;22.80;41.70
41218;BME280;26950;50.960;7.138;2023-03-31T10:53:01;98608.31;;;22.53;39.45
41218;BME280;26950;50.960;7.138;2023-03-31T10:55:33;98605.06;;;23.12;38.00
41218;BME280;26950;50.960;7.138;2023-03-31T10:58:05;98599.81;;;22.95;37.22
41218;BME280;26950;50.960;7.138;2023-03-31T11:00:39;98613.50;;;22.39;38.39
41218;BME280;26950;50.960;7.138;2023-03-31T11:03:27;98610.00;;;22.88;38.01
41218;BME280;26950;50.960;7.138;2023-03-31T11:06:06;98605.19;;;22.78;38.02
41218;BME280;26950;50.960;7.138;2023-03-31T11:08:45;98608.00;;;21.16;39.79
41218;BME280;26950;50.960;7.138;2023-03-31T11:11:28;98623.25;;;19.93;41.13
41218;BME280;26950;50.960;7.138;2023-03-31T11:14:01;98603.25;;;19.61;41.52
41218;BME280;26950;50.960;7.138;2023-03-31T11:16:38;98613.22;;;19.78;41.83
41218;BME280;26950;50.960;7.138;2023-03-31T11:19:18;98615.41;;;19.68;41.68
41218;BME280;26950;50.960;7.138;2023-03-31T11:21:53;98612.59;;;19.71;42.70
41218;BME280;26950;50.960;7.138;2023-03-31T11:24:36;98617.41;;;19.18;43.14
41218;BME280;26950;50.960;7.138;2023-03-31T11:27:25;98615.22;;;18.82;43.73
41218;BME280;26950;50.960;7.138;2023-03-31T11:30:02;98614.94;;;18.65;44.80
41218;BME280;26950;50.960;7.138;2023-03-31T11:32:45;98613.09;;;18.68;44.66
41218;BME280;26950;50.960;7.138;2023-03-31T11:35:22;98619.19;;;18.20;44.70
41218;BME280;26950;50.960;7.138;2023-03-31T11:38:08;98619.03;;;18.50;44.81
41218;BME280;26950;50.960;7.138;2023-03-31T11:40:50;98627.47;;;17.86;46.38
41218;BME280;26950;50.960;7.138;2023-03-31T11:43:25;98624.63;;;17.91;46.54
41218;BME280;26950;50.960;7.138;2023-03-31T11:46:00;98623.38;;;17.48;46.62
41218;BME280;26950;50.960;7.138;2023-03-31T11:48:34;98626.69;;;17.55;46.52
41218;BME280;26950;50.960;7.138;2023-03-31T11:51:06;98625.84;;;17.52;46.91
41218;BME280;26950;50.960;7.138;2023-03-31T11:53:37;98624.25;;;17.47;46.26
41218;BME280;26950;50.960;7.138;2023-03-31T11:56:07;98626.88;;;18.03;46.27
41218;BME280;26950;50.960;7.138;2023-03-31T11:58:37;98618.69;;;17.56;47.25
41218;BME280;26950;50.960;7.138;2023-03-31T12:01:08;98618.22;;;17.70;47.28
41218;BME280;26950;50.960;7.138;2023-03-31T12:03:43;98604.50;;;17.85;46.80
41218;BME280;26950;50.960;7.138;2023-03-31T12:06:17;98601.41;;;17.16;46.98
41218;BME280;26950;50.960;7.138;2023-03-31T12:08:51;98587.03;;;17.78;47.21
41218;BME280;26950;50.960;7.138;2023-03-31T12:11:26;98573.41;;;18.14;46.41
41218;BME280;26950;50.960;7.138;2023-03-31T12:13:59;98573.13;;;18.21;46.38
41218;BME280;26950;50.960;7.138;2023-03-31T12:16:35;98565.47;;;18.14;47.40
41218;BME280;26950;50.960;7.138;2023-03-31T12:19:06;98570.03;;;17.57;46.95
41218;BME280;26950;50.960;7.138;2023-03-31T12:21:41;98574.25;;;16.80;48.67
41218;BME280;26950;50.960;7.138;2023-03-31T12:24:10;98577.19;;;16.99;49.56
41218;BME280;26950;50.960;7.138;2023-03-31T12:26:43;98572.59;;;17.60;49.25
41218;BME280;26950;50.960;7.138;2023-03-31T12:29:22;98548.09;;;18.05;51.14
41218;BME280;26950;50.960;7.138;2023-03-31T12:31:52;98567.31;;;17.32;50.09
41218;BME280;26950;50.960;7.138;2023-03-31T12:34:21;98551.88;;;17.98;48.83
41218;BME280;26950;50.960;7.138;2023-03-31T12:37:03;98542.59;;;18.10;49.09
41218;BME280;26950;50.960;7.138;2023-03-31T12:39:42;98542.00;;;18.26;47.84
41218;BME280;26950;50.960;7.138;2023-03-31T12:42:30;98540.84;;;18.09;47.19
41218;BME280;26950;50.960;7.138;2023-03-31T12:45:05;98548.03;;;18.55;47.63
41218;BME280;26950;50.960;7.138;2023-03-31T12:47:56;98543.47;;;17.85;47.34
41218;BME280;26950;50.960;7.138;2023-03-31T12:50:39;98537.78;;;17.96;47.06
41218;BME280;26950;50.960;7.138;2023-03-31T12:53:18;98529.28;;;18.11;45.69
41218;BME280;26950;50.960;7.138;2023-03-31T12:55:49;98522.88;;;18.40;46.30
41218;BME280;26950;50.960;7.138;2023-03-31T12:58:38;98530.13;;;18.37;46.23
41218;BME280;26950;50.960;7.138;2023-03-31T13:01:08;98526.19;;;18.23;46.38
41218;BME280;26950;50.960;7.138;2023-03-31T13:06:58;98521.53;;;18.05;46.19
41218;BME280;26950;50.960;7.138;2023-03-31T13:09:48;98519.63;;;18.09;46.05
41218;BME280;26950;50.960;7.138;2023-03-31T13:12:20;98526.22;;;17.98;46.79
41218;BME280;26950;50.960;7.138;2023-03-31T13:14:50;98533.31;;;17.45;47.67
41218;BME280;26950;50.960;7.138;2023-03-31T13:17:26;98551.47;;;17.57;49.31
41218;BME280;26950;50.960;7.138;2023-03-31T13:19:55;98555.94;;;17.01;53.95
41218;BME280;26950;50.960;7.138;2023-03-31T13:22:31;98545.19;;;16.77;55.54
41218;BME280;26950;50.960;7.138;2023-03-31T13:25:38;98543.63;;;16.99;55.16
41218;BME280;26950;50.960;7.138;2023-03-31T13:28:14;98547.31;;;17.22;56.18